sensor_id;sensor_type;location;lat;lon;timestamp;pressure;altitude;pressure_sealevel;temperature;humidity
40946;BME280;55635;50.264;11.918;2022-07-22T00:00:47;95978.06;;;19.73;59.29
40946;BME280;55635;50.264;11.918;2022-07-22T00:03:28;95974.53;;;19.73;60.66
40946;BME280;55635;50.264;11.918;2022-07-22T00:06:09;95976.66;;;19.71;59.64
40946;BME280;55635;50.264;11.918;2022-07-22T00:08:50;95969.63;;;19.70;59.25
40946;BME280;55635;50.264;11.918;2022-07-22T00:11:32;95972.34;;;19.81;58.23
40946;BME280;55635;50.264;11.918;2022-07-22T00:14:13;95971.28;;;19.82;58.50
40946;BME280;55635;50.264;11.918;2022-07-22T00:16:54;95970.59;;;19.75;59.43
40946;BME280;55635;50.264;11.918;2022-07-22T00:19:35;95971.28;;;19.71;59.70
40946;BME280;55635;50.264;11.918;2022-07-22T00:22:16;95969.28;;;19.66;58.80
40946;BME280;55635;50.264;11.918;2022-07-22T00:24:57;95957.56;;;19.61;60.18
40946;BME280;55635;50.264;11.918;2022-07-22T00:27:39;95960.97;;;19.44;60.36
40946;BME280;55635;50.264;11.918;2022-07-22T00:30:20;95965.41;;;19.50;59.22
40946;BME280;55635;50.264;11.918;2022-07-22T00:33:02;95962.38;;;19.47;58.88
40946;BME280;55635;50.264;11.918;2022-07-22T00:35:43;95956.63;;;19.43;58.81
40946;BME280;55635;50.264;11.918;2022-07-22T00:38:24;95955.66;;;19.38;59.45
40946;BME280;55635;50.264;11.918;2022-07-22T00:41:06;95953.78;;;19.38;59.53
40946;BME280;55635;50.264;11.918;2022-07-22T00:44:00;95953.78;;;19.38;59.40
40946;BME280;55635;50.264;11.918;2022-07-22T00:46:41;95951.06;;;19.27;61.20
40946;BME280;55635;50.264;11.918;2022-07-22T00:49:22;95956.78;;;19.19;61.00
40946;BME280;55635;50.264;11.918;2022-07-22T00:52:03;95949.25;;;18.97;61.68
40946;BME280;55635;50.264;11.918;2022-07-22T00:54:46;95952.13;;;18.96;62.05
40946;BME280;55635;50.264;11.918;2022-07-22T00:57:27;95953.88;;;18.90;61.89
40946;BME280;55635;50.264;11.918;2022-07-22T01:00:14;95951.13;;;19.09;60.40
40946;BME280;55635;50.264;11.918;2022-07-22T01:02:56;95954.88;;;19.08;61.46
40946;BME280;55635;50.264;11.918;2022-07-22T01:05:37;95947.22;;;18.93;61.38
40946;BME280;55635;50.264;11.918;2022-07-22T01:08:18;95951.53;;;18.82;61.58
40946;BME280;55635;50.264;11.918;2022-07-22T01:11:15;95942.28;;;18.78;61.49
40946;BME280;55635;50.264;11.918;2022-07-22T01:13:57;95947.28;;;18.75;60.83
40946;BME280;55635;50.264;11.918;2022-07-22T01:16:38;95951.25;;;18.72;61.06
40946;BME280;55635;50.264;11.918;2022-07-22T01:19:19;95946.13;;;18.71;61.78
40946;BME280;55635;50.264;11.918;2022-07-22T01:22:02;95952.31;;;18.71;61.75
40946;BME280;55635;50.264;11.918;2022-07-22T01:24:43;95942.97;;;18.74;61.65
40946;BME280;55635;50.264;11.918;2022-07-22T01:27:24;95946.19;;;18.64;63.49
40946;BME280;55635;50.264;11.918;2022-07-22T01:30:06;95952.97;;;18.48;63.79
40946;BME280;55635;50.264;11.918;2022-07-22T01:32:48;95959.34;;;18.54;63.15
40946;BME280;55635;50.264;11.918;2022-07-22T01:35:29;95955.28;;;18.45;63.04
40946;BME280;55635;50.264;11.918;2022-07-22T01:38:11;95952.16;;;18.30;63.72
40946;BME280;55635;50.264;11.918;2022-07-22T01:40:53;95952.53;;;18.33;62.93
40946;BME280;55635;50.264;11.918;2022-07-22T01:43:34;95949.94;;;18.27;64.07
40946;BME280;55635;50.264;11.918;2022-07-22T01:46:15;95945.59;;;18.26;64.43
40946;BME280;55635;50.264;11.918;2022-07-22T01:48:58;95947.13;;;18.22;64.77
40946;BME280;55635;50.264;11.918;2022-07-22T01:51:42;95951.97;;;18.13;65.02
40946;BME280;55635;50.264;11.918;2022-07-22T01:54:23;95952.03;;;18.07;64.75
40946;BME280;55635;50.264;11.918;2022-07-22T01:57:04;95948.16;;;18.03;64.83
40946;BME280;55635;50.264;11.918;2022-07-22T01:59:45;95956.19;;;18.03;65.92
40946;BME280;55635;50.264;11.918;2022-07-22T02:02:26;95952.56;;;17.97;65.84
40946;BME280;55635;50.264;11.918;2022-07-22T02:05:08;95956.66;;;18.00;66.03
40946;BME280;55635;50.264;11.918;2022-07-22T02:07:50;95943.53;;;17.91;65.94
40946;BME280;55635;50.264;11.918;2022-07-22T02:10:34;95951.47;;;17.80;66.84
40946;BME280;55635;50.264;11.918;2022-07-22T02:13:16;95948.00;;;17.79;66.56
40946;BME280;55635;50.264;11.918;2022-07-22T02:15:58;95954.44;;;17.72;66.64
40946;BME280;55635;50.264;11.918;2022-07-22T02:18:39;95951.25;;;17.63;67.13
40946;BME280;55635;50.264;11.918;2022-07-22T02:21:21;95948.75;;;17.62;67.12
40946;BME280;55635;50.264;11.918;2022-07-22T02:24:02;95952.53;;;17.54;67.87
40946;BME280;55635;50.264;11.918;2022-07-22T02:26:43;95948.03;;;17.55;67.67
40946;BME280;55635;50.264;11.918;2022-07-22T02:29:27;95941.81;;;17.54;68.40
40946;BME280;55635;50.264;11.918;2022-07-22T02:32:09;95948.19;;;17.53;68.62
40946;BME280;55635;50.264;11.918;2022-07-22T02:34:52;95951.88;;;17.59;67.53
40946;BME280;55635;50.264;11.918;2022-07-22T02:37:33;95954.75;;;17.64;67.68
40946;BME280;55635;50.264;11.918;2022-07-22T02:40:14;95960.56;;;17.54;67.90
40946;BME280;55635;50.264;11.918;2022-07-22T02:42:56;95951.69;;;17.60;67.44
40946;BME280;55635;50.264;11.918;2022-07-22T02:45:38;95960.94;;;17.64;67.56
40946;BME280;55635;50.264;11.918;2022-07-22T02:48:19;95949.81;;;17.61;67.23
40946;BME280;55635;50.264;11.918;2022-07-22T02:51:01;95956.25;;;17.53;67.52
40946;BME280;55635;50.264;11.918;2022-07-22T02:53:43;95959.78;;;17.47;67.76
40946;BME280;55635;50.264;11.918;2022-07-22T02:56:24;95968.28;;;17.44;68.21
40946;BME280;55635;50.264;11.918;2022-07-22T02:59:05;95961.84;;;17.27;68.52
40946;BME280;55635;50.264;11.918;2022-07-22T03:01:47;95957.72;;;17.24;69.06
40946;BME280;55635;50.264;11.918;2022-07-22T03:04:28;95965.22;;;17.40;68.24
40946;BME280;55635;50.264;11.918;2022-07-22T03:07:09;95968.28;;;17.44;68.84
40946;BME280;55635;50.264;11.918;2022-07-22T03:09:51;95973.19;;;17.47;68.02
40946;BME280;55635;50.264;11.918;2022-07-22T03:12:32;95972.09;;;17.61;67.96
40946;BME280;55635;50.264;11.918;2022-07-22T03:15:13;95979.31;;;17.61;68.18
40946;BME280;55635;50.264;11.918;2022-07-22T03:17:54;95967.31;;;17.63;67.66
40946;BME280;55635;50.264;11.918;2022-07-22T03:20:36;95979.41;;;17.72;66.68
40946;BME280;55635;50.264;11.918;2022-07-22T03:23:18;95976.78;;;17.66;66.53
40946;BME280;55635;50.264;11.918;2022-07-22T03:25:59;95977.03;;;17.64;66.22
40946;BME280;55635;50.264;11.918;2022-07-22T03:28:40;95974.69;;;17.68;66.57
40946;BME280;55635;50.264;11.918;2022-07-22T03:31:21;95976.63;;;17.61;66.80
40946;BME280;55635;50.264;11.918;2022-07-22T03:34:04;95977.69;;;17.53;67.39
40946;BME280;55635;50.264;11.918;2022-07-22T03:36:50;95967.84;;;17.47;67.60
40946;BME280;55635;50.264;11.918;2022-07-22T03:39:32;95965.75;;;17.49;67.55
40946;BME280;55635;50.264;11.918;2022-07-22T03:42:13;95971.34;;;17.48;67.34
40946;BME280;55635;50.264;11.918;2022-07-22T03:45:00;95971.94;;;17.50;67.00
40946;BME280;55635;50.264;11.918;2022-07-22T03:47:42;95976.88;;;17.53;66.91
40946;BME280;55635;50.264;11.918;2022-07-22T03:50:27;95973.97;;;17.54;66.86
40946;BME280;55635;50.264;11.918;2022-07-22T03:53:09;95984.31;;;17.57;66.85
40946;BME280;55635;50.264;11.918;2022-07-22T03:55:55;95969.25;;;17.50;67.14
40946;BME280;55635;50.264;11.918;2022-07-22T03:58:36;95970.19;;;17.37;67.64
40946;BME280;55635;50.264;11.918;2022-07-22T04:01:17;95968.81;;;17.28;67.82
40946;BME280;55635;50.264;11.918;2022-07-22T04:03:58;95976.34;;;17.13;68.39
40946;BME280;55635;50.264;11.918;2022-07-22T04:06:43;95985.00;;;17.15;68.54
40946;BME280;55635;50.264;11.918;2022-07-22T04:09:40;95972.25;;;17.10;68.82
40946;BME280;55635;50.264;11.918;2022-07-22T04:12:21;95973.66;;;17.13;68.80
40946;BME280;55635;50.264;11.918;2022-07-22T04:15:22;95977.22;;;17.07;68.59
40946;BME280;55635;50.264;11.918;2022-07-22T04:18:03;95979.66;;;17.15;68.82
40946;BME280;55635;50.264;11.918;2022-07-22T04:20:45;95983.16;;;17.15;69.14
40946;BME280;55635;50.264;11.918;2022-07-22T04:23:48;95977.41;;;17.12;68.98
40946;BME280;55635;50.264;11.918;2022-07-22T04:26:35;95979.22;;;17.18;68.88
40946;BME280;55635;50.264;11.918;2022-07-22T04:29:18;95973.75;;;17.31;68.36
40946;BME280;55635;50.264;11.918;2022-07-22T04:32:02;95974.13;;;17.34;68.27
40946;BME280;55635;50.264;11.918;2022-07-22T04:34:43;95989.13;;;17.42;68.15
40946;BME280;55635;50.264;11.918;2022-07-22T04:37:24;95974.09;;;17.41;68.60
40946;BME280;55635;50.264;11.918;2022-07-22T04:40:06;95977.69;;;17.53;67.81
40946;BME280;55635;50.264;11.918;2022-07-22T04:42:48;95975.00;;;17.60;67.48
40946;BME280;55635;50.264;11.918;2022-07-22T04:45:29;95974.78;;;17.61;67.51
40946;BME280;55635;50.264;11.918;2022-07-22T04:48:10;95969.41;;;17.61;67.87
40946;BME280;55635;50.264;11.918;2022-07-22T04:50:52;95974.19;;;17.77;67.52
40946;BME280;55635;50.264;11.918;2022-07-22T04:53:33;95972.66;;;17.88;67.54
40946;BME280;55635;50.264;11.918;2022-07-22T04:56:14;95973.19;;;17.97;67.32
40946;BME280;55635;50.264;11.918;2022-07-22T04:58:55;95971.53;;;17.95;67.41
40946;BME280;55635;50.264;11.918;2022-07-22T05:01:40;95976.34;;;18.12;67.17
40946;BME280;55635;50.264;11.918;2022-07-22T05:04:24;95962.84;;;18.18;66.47
40946;BME280;55635;50.264;11.918;2022-07-22T05:07:06;95976.66;;;18.22;67.64
40946;BME280;55635;50.264;11.918;2022-07-22T05:09:47;95972.75;;;18.36;67.46
40946;BME280;55635;50.264;11.918;2022-07-22T05:12:29;95969.03;;;18.37;67.56
40946;BME280;55635;50.264;11.918;2022-07-22T05:15:10;95964.13;;;18.52;67.13
40946;BME280;55635;50.264;11.918;2022-07-22T05:17:52;95957.84;;;18.58;67.17
40946;BME280;55635;50.264;11.918;2022-07-22T05:20:43;95963.19;;;18.76;66.28
40946;BME280;55635;50.264;11.918;2022-07-22T05:23:24;95959.72;;;18.87;66.20
40946;BME280;55635;50.264;11.918;2022-07-22T05:26:05;95961.97;;;19.02;66.60
40946;BME280;55635;50.264;11.918;2022-07-22T05:28:47;95963.06;;;19.13;66.33
40946;BME280;55635;50.264;11.918;2022-07-22T05:31:28;95964.84;;;19.19;66.65
40946;BME280;55635;50.264;11.918;2022-07-22T05:34:10;95962.63;;;19.27;66.65
40946;BME280;55635;50.264;11.918;2022-07-22T05:36:58;95958.50;;;19.43;66.45
40946;BME280;55635;50.264;11.918;2022-07-22T05:39:40;95961.19;;;19.54;66.57
40946;BME280;55635;50.264;11.918;2022-07-22T05:42:21;95956.06;;;19.65;66.70
40946;BME280;55635;50.264;11.918;2022-07-22T05:45:03;95952.91;;;19.79;66.60
40946;BME280;55635;50.264;11.918;2022-07-22T05:47:44;95954.41;;;19.98;66.12
40946;BME280;55635;50.264;11.918;2022-07-22T05:50:27;95950.19;;;20.14;65.10
40946;BME280;55635;50.264;11.918;2022-07-22T05:53:08;95961.31;;;20.29;64.99
40946;BME280;55635;50.264;11.918;2022-07-22T05:55:49;95961.59;;;20.56;64.52
40946;BME280;55635;50.264;11.918;2022-07-22T05:58:30;95966.94;;;20.28;65.90
40946;BME280;55635;50.264;11.918;2022-07-22T06:01:12;95966.44;;;20.42;65.59
40946;BME280;55635;50.264;11.918;2022-07-22T06:03:54;95961.16;;;20.47;66.12
40946;BME280;55635;50.264;11.918;2022-07-22T06:06:36;95965.19;;;20.73;65.29
40946;BME280;55635;50.264;11.918;2022-07-22T06:09:19;95965.72;;;20.87;64.79
40946;BME280;55635;50.264;11.918;2022-07-22T06:12:00;95958.06;;;20.95;64.42
40946;BME280;55635;50.264;11.918;2022-07-22T06:14:41;95960.22;;;21.10;64.13
40946;BME280;55635;50.264;11.918;2022-07-22T06:17:22;95959.25;;;21.16;63.73
40946;BME280;55635;50.264;11.918;2022-07-22T06:20:04;95959.41;;;21.71;63.51
40946;BME280;55635;50.264;11.918;2022-07-22T06:22:46;95960.47;;;22.03;62.66
40946;BME280;55635;50.264;11.918;2022-07-22T06:25:28;95957.38;;;23.25;58.33
40946;BME280;55635;50.264;11.918;2022-07-22T06:28:11;95955.03;;;24.34;56.31
40946;BME280;55635;50.264;11.918;2022-07-22T06:30:52;95952.22;;;24.76;55.45
40946;BME280;55635;50.264;11.918;2022-07-22T06:33:36;95956.25;;;25.96;51.59
40946;BME280;55635;50.264;11.918;2022-07-22T06:36:18;95948.50;;;26.69;48.72
40946;BME280;55635;50.264;11.918;2022-07-22T06:38:59;95951.84;;;27.10;47.43
40946;BME280;55635;50.264;11.918;2022-07-22T06:41:57;95955.00;;;27.71;46.94
40946;BME280;55635;50.264;11.918;2022-07-22T06:44:56;95951.63;;;27.01;47.33
40946;BME280;55635;50.264;11.918;2022-07-22T06:47:58;95947.56;;;27.47;47.12
40946;BME280;55635;50.264;11.918;2022-07-22T06:50:39;95952.72;;;28.45;45.21
40946;BME280;55635;50.264;11.918;2022-07-22T06:53:26;95948.09;;;29.12;44.53
40946;BME280;55635;50.264;11.918;2022-07-22T06:56:07;95941.13;;;29.62;41.64
40946;BME280;55635;50.264;11.918;2022-07-22T06:58:48;95951.09;;;29.34;41.61
40946;BME280;55635;50.264;11.918;2022-07-22T07:01:29;95952.63;;;30.10;41.46
40946;BME280;55635;50.264;11.918;2022-07-22T07:04:14;95949.69;;;27.89;44.59
40946;BME280;55635;50.264;11.918;2022-07-22T07:06:56;95958.59;;;28.81;42.83
40946;BME280;55635;50.264;11.918;2022-07-22T07:09:46;95947.50;;;28.73;43.39
40946;BME280;55635;50.264;11.918;2022-07-22T07:12:47;95950.59;;;28.66;43.80
40946;BME280;55635;50.264;11.918;2022-07-22T07:15:35;95944.19;;;28.23;43.69
40946;BME280;55635;50.264;11.918;2022-07-22T07:18:21;95961.50;;;26.77;47.34
40946;BME280;55635;50.264;11.918;2022-07-22T07:21:04;95935.88;;;27.42;46.24
40946;BME280;55635;50.264;11.918;2022-07-22T07:23:45;95955.69;;;28.20;43.78
40946;BME280;55635;50.264;11.918;2022-07-22T07:26:27;95956.03;;;26.92;45.67
40946;BME280;55635;50.264;11.918;2022-07-22T07:29:08;95939.50;;;28.29;43.71
40946;BME280;55635;50.264;11.918;2022-07-22T07:31:53;95938.81;;;27.50;45.45
40946;BME280;55635;50.264;11.918;2022-07-22T07:34:37;95936.69;;;29.29;42.15
40946;BME280;55635;50.264;11.918;2022-07-22T07:37:19;95942.31;;;29.37;40.86
40946;BME280;55635;50.264;11.918;2022-07-22T07:40:01;95946.22;;;28.89;40.85
40946;BME280;55635;50.264;11.918;2022-07-22T07:42:42;95933.22;;;28.99;41.79
40946;BME280;55635;50.264;11.918;2022-07-22T07:45:23;95927.69;;;29.28;41.31
40946;BME280;55635;50.264;11.918;2022-07-22T07:48:04;95933.97;;;28.86;41.62
40946;BME280;55635;50.264;11.918;2022-07-22T07:50:47;95939.91;;;29.87;39.66
40946;BME280;55635;50.264;11.918;2022-07-22T07:53:28;95927.09;;;30.01;38.54
40946;BME280;55635;50.264;11.918;2022-07-22T07:56:09;95937.56;;;30.26;38.99
40946;BME280;55635;50.264;11.918;2022-07-22T07:58:51;95938.91;;;30.29;37.71
40946;BME280;55635;50.264;11.918;2022-07-22T08:01:32;95925.50;;;31.00;36.03
40946;BME280;55635;50.264;11.918;2022-07-22T08:04:14;95929.41;;;31.08;35.94
40946;BME280;55635;50.264;11.918;2022-07-22T08:06:55;95926.78;;;31.74;34.59
40946;BME280;55635;50.264;11.918;2022-07-22T08:09:36;95924.88;;;31.75;34.18
40946;BME280;55635;50.264;11.918;2022-07-22T08:12:25;95897.94;;;31.19;34.75
40946;BME280;55635;50.264;11.918;2022-07-22T08:15:18;95917.75;;;31.38;35.14
40946;BME280;55635;50.264;11.918;2022-07-22T08:18:02;95926.19;;;31.06;35.58
40946;BME280;55635;50.264;11.918;2022-07-22T08:20:43;95921.31;;;31.74;35.23
40946;BME280;55635;50.264;11.918;2022-07-22T08:23:26;95913.91;;;31.75;34.07
40946;BME280;55635;50.264;11.918;2022-07-22T08:26:07;95908.31;;;32.33;33.58
40946;BME280;55635;50.264;11.918;2022-07-22T08:28:48;95918.44;;;32.02;33.75
40946;BME280;55635;50.264;11.918;2022-07-22T08:31:30;95924.03;;;30.62;35.86
40946;BME280;55635;50.264;11.918;2022-07-22T08:34:18;95927.91;;;28.42;39.80
40946;BME280;55635;50.264;11.918;2022-07-22T08:36:59;95924.47;;;29.58;37.54
40946;BME280;55635;50.264;11.918;2022-07-22T08:39:40;95925.56;;;30.82;36.10
40946;BME280;55635;50.264;11.918;2022-07-22T08:42:23;95932.09;;;30.26;35.93
40946;BME280;55635;50.264;11.918;2022-07-22T08:45:06;95915.00;;;29.69;37.08
40946;BME280;55635;50.264;11.918;2022-07-22T08:47:52;95917.94;;;28.56;39.13
40946;BME280;55635;50.264;11.918;2022-07-22T08:50:39;95911.66;;;28.79;40.02
40946;BME280;55635;50.264;11.918;2022-07-22T08:53:59;95924.69;;;29.81;38.47
40946;BME280;55635;50.264;11.918;2022-07-22T08:56:40;95912.41;;;30.10;37.64
40946;BME280;55635;50.264;11.918;2022-07-22T08:59:24;95905.91;;;27.76;40.19
40946;BME280;55635;50.264;11.918;2022-07-22T09:02:10;95893.47;;;29.49;37.36
40946;BME280;55635;50.264;11.918;2022-07-22T09:05:01;95905.19;;;30.60;34.88
40946;BME280;55635;50.264;11.918;2022-07-22T09:07:46;95898.72;;;28.42;37.32
40946;BME280;55635;50.264;11.918;2022-07-22T09:10:38;95912.28;;;28.24;36.62
40946;BME280;55635;50.264;11.918;2022-07-22T09:13:19;95909.91;;;28.41;37.40
40946;BME280;55635;50.264;11.918;2022-07-22T09:16:09;95906.25;;;28.27;37.74
40946;BME280;55635;50.264;11.918;2022-07-22T09:19:03;95900.84;;;29.49;37.20
40946;BME280;55635;50.264;11.918;2022-07-22T09:21:45;95898.56;;;29.56;36.24
40946;BME280;55635;50.264;11.918;2022-07-22T09:24:39;95897.53;;;29.52;34.80
40946;BME280;55635;50.264;11.918;2022-07-22T09:27:37;95901.09;;;29.85;35.87
40946;BME280;55635;50.264;11.918;2022-07-22T09:30:52;95884.00;;;30.52;34.47
40946;BME280;55635;50.264;11.918;2022-07-22T09:33:34;95893.91;;;31.39;33.35
40946;BME280;55635;50.264;11.918;2022-07-22T09:36:53;95894.50;;;31.94;31.74
40946;BME280;55635;50.264;11.918;2022-07-22T09:39:34;95886.69;;;31.87;31.33
40946;BME280;55635;50.264;11.918;2022-07-22T09:42:16;95885.50;;;29.15;34.78
40946;BME280;55635;50.264;11.918;2022-07-22T09:44:58;95897.75;;;30.20;33.78
40946;BME280;55635;50.264;11.918;2022-07-22T09:47:51;95898.47;;;31.43;32.28
40946;BME280;55635;50.264;11.918;2022-07-22T09:50:54;95889.22;;;31.75;32.44
40946;BME280;55635;50.264;11.918;2022-07-22T09:53:49;95891.53;;;32.34;31.52
40946;BME280;55635;50.264;11.918;2022-07-22T09:56:35;95887.25;;;32.20;30.66
40946;BME280;55635;50.264;11.918;2022-07-22T09:59:16;95902.22;;;31.11;33.01
40946;BME280;55635;50.264;11.918;2022-07-22T10:02:04;95891.41;;;31.64;31.80
40946;BME280;55635;50.264;11.918;2022-07-22T10:04:47;95880.44;;;31.28;32.25
40946;BME280;55635;50.264;11.918;2022-07-22T10:07:32;95889.72;;;32.30;30.50
40946;BME280;55635;50.264;11.918;2022-07-22T10:10:20;95887.53;;;32.97;29.92
40946;BME280;55635;50.264;11.918;2022-07-22T10:13:03;95894.75;;;29.89;33.43
40946;BME280;55635;50.264;11.918;2022-07-22T10:15:46;95883.28;;;30.47;33.95
40946;BME280;55635;50.264;11.918;2022-07-22T10:18:27;95894.75;;;29.70;35.08
40946;BME280;55635;50.264;11.918;2022-07-22T10:21:11;95881.78;;;31.31;32.43
40946;BME280;55635;50.264;11.918;2022-07-22T10:24:13;95884.59;;;32.37;30.17
40946;BME280;55635;50.264;11.918;2022-07-22T10:27:09;95880.50;;;33.48;29.81
40946;BME280;55635;50.264;11.918;2022-07-22T10:29:51;95891.03;;;31.44;32.52
40946;BME280;55635;50.264;11.918;2022-07-22T10:32:33;95885.78;;;31.69;30.79
40946;BME280;55635;50.264;11.918;2022-07-22T10:35:22;95887.75;;;31.33;31.71
40946;BME280;55635;50.264;11.918;2022-07-22T10:38:07;95882.38;;;31.86;31.62
40946;BME280;55635;50.264;11.918;2022-07-22T10:40:52;95888.91;;;32.60;31.65
40946;BME280;55635;50.264;11.918;2022-07-22T10:46:54;95872.91;;;33.62;28.36
40946;BME280;55635;50.264;11.918;2022-07-22T10:49:39;95870.84;;;34.31;27.57
40946;BME280;55635;50.264;11.918;2022-07-22T10:52:34;95877.44;;;33.15;29.19
40946;BME280;55635;50.264;11.918;2022-07-22T10:55:22;95862.44;;;32.81;29.01
40946;BME280;55635;50.264;11.918;2022-07-22T11:01:16;95865.19;;;32.03;30.37
40946;BME280;55635;50.264;11.918;2022-07-22T11:04:15;95860.75;;;33.28;29.24
40946;BME280;55635;50.264;11.918;2022-07-22T11:06:57;95858.75;;;34.06;27.79
40946;BME280;55635;50.264;11.918;2022-07-22T11:09:38;95851.72;;;33.62;28.60
40946;BME280;55635;50.264;11.918;2022-07-22T11:12:19;95851.72;;;33.45;28.31
40946;BME280;55635;50.264;11.918;2022-07-22T11:15:04;95851.84;;;33.40;29.61
40946;BME280;55635;50.264;11.918;2022-07-22T11:17:47;95843.41;;;33.97;28.86
40946;BME280;55635;50.264;11.918;2022-07-22T11:20:29;95844.25;;;33.71;27.93
40946;BME280;55635;50.264;11.918;2022-07-22T11:23:10;95844.09;;;33.85;27.04
40946;BME280;55635;50.264;11.918;2022-07-22T11:25:52;95844.13;;;33.42;28.98
40946;BME280;55635;50.264;11.918;2022-07-22T11:28:40;95865.31;;;30.68;32.34
40946;BME280;55635;50.264;11.918;2022-07-22T11:31:21;95851.94;;;30.66;31.45
40946;BME280;55635;50.264;11.918;2022-07-22T11:34:21;95833.28;;;30.14;32.44
40946;BME280;55635;50.264;11.918;2022-07-22T11:37:04;95838.13;;;30.71;33.15
40946;BME280;55635;50.264;11.918;2022-07-22T11:39:45;95828.34;;;31.06;30.84
40946;BME280;55635;50.264;11.918;2022-07-22T11:42:27;95834.03;;;33.03;29.74
40946;BME280;55635;50.264;11.918;2022-07-22T11:45:08;95831.59;;;33.87;29.15
40946;BME280;55635;50.264;11.918;2022-07-22T11:47:50;95830.22;;;34.86;27.20
40946;BME280;55635;50.264;11.918;2022-07-22T11:50:32;95826.81;;;34.22;27.31
40946;BME280;55635;50.264;11.918;2022-07-22T11:53:13;95819.84;;;33.44;28.24
40946;BME280;55635;50.264;11.918;2022-07-22T11:55:59;95812.22;;;34.60;26.20
40946;BME280;55635;50.264;11.918;2022-07-22T11:58:48;95825.72;;;35.32;25.21
40946;BME280;55635;50.264;11.918;2022-07-22T12:01:37;95799.88;;;36.02;24.31
40946;BME280;55635;50.264;11.918;2022-07-22T12:04:24;95807.13;;;35.62;25.21
40946;BME280;55635;50.264;11.918;2022-07-22T12:07:07;95802.53;;;35.45;24.63
40946;BME280;55635;50.264;11.918;2022-07-22T12:09:48;95806.47;;;35.77;24.30
40946;BME280;55635;50.264;11.918;2022-07-22T12:12:40;95799.91;;;36.38;24.67
40946;BME280;55635;50.264;11.918;2022-07-22T12:15:22;95813.53;;;34.54;25.26
40946;BME280;55635;50.264;11.918;2022-07-22T12:18:21;95801.06;;;34.85;25.07
40946;BME280;55635;50.264;11.918;2022-07-22T12:21:05;95789.00;;;35.52;24.35
40946;BME280;55635;50.264;11.918;2022-07-22T12:23:51;95789.34;;;35.83;23.63
40946;BME280;55635;50.264;11.918;2022-07-22T12:26:48;95798.66;;;36.48;23.43
40946;BME280;55635;50.264;11.918;2022-07-22T12:32:24;95789.00;;;34.69;25.49
40946;BME280;55635;50.264;11.918;2022-07-22T12:35:06;95785.41;;;34.98;24.99
40946;BME280;55635;50.264;11.918;2022-07-22T12:37:47;95780.94;;;35.47;24.29
40946;BME280;55635;50.264;11.918;2022-07-22T12:40:28;95781.47;;;35.61;24.40
40946;BME280;55635;50.264;11.918;2022-07-22T12:43:10;95786.56;;;33.92;25.76
40946;BME280;55635;50.264;11.918;2022-07-22T12:45:51;95780.25;;;31.67;29.45
40946;BME280;55635;50.264;11.918;2022-07-22T12:48:33;95788.38;;;30.92;29.86
40946;BME280;55635;50.264;11.918;2022-07-22T12:51:14;95776.34;;;31.99;28.85
40946;BME280;55635;50.264;11.918;2022-07-22T12:53:55;95770.28;;;33.78;26.46
40946;BME280;55635;50.264;11.918;2022-07-22T12:56:36;95763.44;;;35.02;24.93
40946;BME280;55635;50.264;11.918;2022-07-22T12:59:17;95775.59;;;35.09;25.05
40946;BME280;55635;50.264;11.918;2022-07-22T13:01:59;95765.25;;;34.27;25.43
40946;BME280;55635;50.264;11.918;2022-07-22T13:04:40;95769.78;;;34.23;26.11
40946;BME280;55635;50.264;11.918;2022-07-22T13:07:21;95764.63;;;35.01;25.39
40946;BME280;55635;50.264;11.918;2022-07-22T13:10:02;95764.84;;;33.01;26.88
40946;BME280;55635;50.264;11.918;2022-07-22T13:12:43;95768.81;;;33.81;27.21
40946;BME280;55635;50.264;11.918;2022-07-22T13:15:24;95758.94;;;33.80;26.62
40946;BME280;55635;50.264;11.918;2022-07-22T13:18:05;95750.47;;;35.43;25.04
40946;BME280;55635;50.264;11.918;2022-07-22T13:20:47;95743.75;;;36.22;23.40
40946;BME280;55635;50.264;11.918;2022-07-22T13:23:28;95745.56;;;36.18;23.47
40946;BME280;55635;50.264;11.918;2022-07-22T13:26:09;95738.78;;;36.52;22.86
40946;BME280;55635;50.264;11.918;2022-07-22T13:28:50;95744.47;;;37.35;22.69
40946;BME280;55635;50.264;11.918;2022-07-22T13:31:31;95747.13;;;34.96;25.57
40946;BME280;55635;50.264;11.918;2022-07-22T13:34:12;95749.66;;;32.95;27.53
40946;BME280;55635;50.264;11.918;2022-07-22T13:36:53;95744.91;;;32.53;28.09
40946;BME280;55635;50.264;11.918;2022-07-22T13:39:34;95731.69;;;32.63;28.06
40946;BME280;55635;50.264;11.918;2022-07-22T13:42:16;95737.47;;;34.03;25.93
40946;BME280;55635;50.264;11.918;2022-07-22T13:45:00;95736.50;;;34.86;25.61
40946;BME280;55635;50.264;11.918;2022-07-22T13:47:42;95736.31;;;35.45;24.34
40946;BME280;55635;50.264;11.918;2022-07-22T13:50:23;95732.06;;;35.80;24.47
40946;BME280;55635;50.264;11.918;2022-07-22T13:53:04;95735.56;;;36.14;24.81
40946;BME280;55635;50.264;11.918;2022-07-22T13:55:45;95726.09;;;36.51;23.98
40946;BME280;55635;50.264;11.918;2022-07-22T13:58:26;95728.09;;;35.04;24.82
40946;BME280;55635;50.264;11.918;2022-07-22T14:01:08;95722.31;;;35.17;25.39
40946;BME280;55635;50.264;11.918;2022-07-22T14:03:50;95724.19;;;35.58;23.95
40946;BME280;55635;50.264;11.918;2022-07-22T14:06:35;95712.09;;;36.08;22.50
40946;BME280;55635;50.264;11.918;2022-07-22T14:09:16;95705.94;;;36.75;22.07
40946;BME280;55635;50.264;11.918;2022-07-22T14:11:57;95713.38;;;36.98;22.62
40946;BME280;55635;50.264;11.918;2022-07-22T14:14:39;95714.34;;;37.46;21.82
40946;BME280;55635;50.264;11.918;2022-07-22T14:17:20;95705.41;;;36.97;22.12
40946;BME280;55635;50.264;11.918;2022-07-22T14:20:02;95702.25;;;37.11;22.38
40946;BME280;55635;50.264;11.918;2022-07-22T14:22:44;95700.91;;;36.28;23.41
40946;BME280;55635;50.264;11.918;2022-07-22T14:25:25;95705.09;;;36.86;22.94